Aérodrome :
LOGIN :

S'inscrire | Disclaimer

   EN    FR    IT 

 










Légende :    VFR   VFR Marginal   IFR   IFR Intensif   IFR Très Intensif
Visi : 
Plafond : 
>= 8 km
>= 3000ft
5 à 8 km
1000 à 3000 ft
1500m à 5 km
500 à 1000 ft
800 à 1500m
200 à 500 ft
< 800m
< 200 ft
Symboles :   Orages  Brouillard  Fortes neiges  Fortes précipitations  Vent > 20 kt
SIGMETs :   Divers  Orages  Givrage  Turbulence  Onde Orograph.  Cendres Volcan.







- Altitude de l'aérodrome : 51 ft
- Code IATA : GWT


EDXW - Westerland-Sylt Island

DERNIER METAR :
  • 171050Z 22009KT 7000 NSC 17/14 Q1018

METARs EXPIRÉS :
  • 171020Z 21008KT 7000 NSC 17/14 Q1018
  • 170950Z 19010KT 7000 NSC 17/14 Q1018
  • 170920Z 20009KT 7000 NSC 16/14 Q1018
  • 170850Z 19008KT 4900 BR NSC 16/14 Q1018
  • 170820Z 17010KT 4100 BR NSC 15/14 Q1017

TAF TAF EDXW
Valide du 17 à 09h jusqu'au 17 à 18h UTC


170800Z 1709/1718 20008KT 4500 BR NSC
BECMG 1709/1710 6000
BECMG 1711/1714 29008KT
TEMPO 1713/1718 3000 BR BKN005
Pas de NOTAMs connus pour ce terrain.



MET'MAP, la Météo Aéronautique d'un coup d'oeil ! - Copyright ORBIFLY Décembre 2007 - Disclaimer

ORBIFLY MET'MAP TEAM :

Programmation & Développement : Alexandra Zaïnal
Conception & Développement : Baudouin d'Aumeries
Co-Programmation & Développement : Marc-Olivier Méhu
Soutien technique & logistique : Manuel Goepfert

Contact : metmap@orbifly.com




SOURCES & CREDITS :

   NOAA